Time;durP1;ratioP1;P1;durP2;ratioP2;P2;SDS_P1;SDS_P2;PMS_P1;PMS_P2;Temp;Humidity;BMP_temperature;BMP_pressure;BME280_temperature;BME280_humidity;BME280_pressure;Samples;Min_cycle;Max_cycle;Signal;HPM_P1;HPM_P2
2022/09/03 00:00:24;;;;;;;;;;;435.90;2355.20;;;;;;5031004;28;19963;-53
2022/09/03 00:02:59;;;;;;;;;;;435.90;2355.20;;;;;;5029082;28;20292;-53
2022/09/03 00:05:39;;;;;;;;;;;435.90;2355.20;;;;;;5031073;28;19909;-53
2022/09/03 00:08:10;;;;;;;;;;;435.90;2355.20;;;;;;5030956;28;19924;-54
2022/09/03 00:10:43;;;;;;;;;;;435.90;2355.20;;;;;;5031104;28;19913;-56
2022/09/03 00:13:12;;;;;;;;;;;435.90;2355.20;;;;;;5030774;28;20000;-52
2022/09/03 00:15:39;;;;;;;;;;;435.90;2355.20;;;;;;5030736;28;20008;-52
2022/09/03 00:18:30;;;;;;;;;;;435.90;2355.20;;;;;;5030971;28;19913;-51
2022/09/03 00:21:07;;;;;;;;;;;435.90;2355.20;;;;;;5027568;28;19913;-52
2022/09/03 00:23:33;;;;;;;;;;;435.90;2355.20;;;;;;5030310;28;19932;-52
2022/09/03 00:26:11;;;;;;;;;;;435.90;2355.20;;;;;;5030590;28;19919;-51
2022/09/03 00:28:58;;;;;;;;;;;435.90;2355.20;;;;;;5030965;28;19927;-57
2022/09/03 00:31:32;;;;;;;;;;;435.90;2355.20;;;;;;5030479;28;19920;-53
2022/09/03 00:34:03;;;;;;;;;;;435.80;2355.20;;;;;;5030503;28;19963;-54
2022/09/03 00:36:32;;;;;;;;;;;435.70;2355.20;;;;;;5030374;28;20362;-52
2022/09/03 00:38:58;;;;;;;;;;;435.60;2355.20;;;;;;5030322;28;20378;-53
2022/09/03 00:41:32;;;;;;;;;;;435.60;2355.20;;;;;;5030846;28;20000;-55
2022/09/03 00:43:58;;;;;;;;;;;435.60;2355.20;;;;;;5031495;28;19909;-54
2022/09/03 00:46:30;;;;;;;;;;;435.60;2355.20;;;;;;5034372;28;19909;-57
2022/09/03 00:49:07;;;;;;;;;;;435.60;2355.20;;;;;;5034426;28;19979;-56
2022/09/03 00:51:40;;;;;;;;;;;435.60;2355.20;;;;;;5034161;28;20020;-55
2022/09/03 00:54:11;;;;;;;;;;;435.70;2355.20;;;;;;5034153;28;19913;-53
2022/09/03 00:56:42;;;;;;;;;;;435.80;2355.20;;;;;;5034163;28;19916;-54
2022/09/03 00:59:20;;;;;;;;;;;435.80;2355.20;;;;;;5034094;28;20326;-54
2022/09/03 01:01:52;;;;;;;;;;;435.90;2355.20;;;;;;5034314;28;19914;-53
2022/09/03 01:04:23;;;;;;;;;;;435.90;2355.20;;;;;;5034166;28;20362;-55
2022/09/03 01:06:58;;;;;;;;;;;435.90;2355.20;;;;;;5033875;28;19913;-54
2022/09/03 01:09:30;;;;;;;;;;;435.90;2355.20;;;;;;5034178;28;19923;-57
2022/09/03 01:11:58;;;;;;;;;;;435.90;2355.20;;;;;;5034001;28;19959;-53
2022/09/03 01:14:32;;;;;;;;;;;436.00;2355.20;;;;;;5034246;28;19913;-54
2022/09/03 01:16:58;;;;;;;;;;;436.00;2355.20;;;;;;5033620;28;19909;-54
2022/09/03 01:19:30;;;;;;;;;;;436.00;2355.20;;;;;;5033933;28;19932;-56
2022/09/03 01:22:19;;;;;;;;;;;435.90;2355.20;;;;;;5033587;28;19920;-54
2022/09/03 01:25:06;;;;;;;;;;;435.90;2355.20;;;;;;5033589;28;19913;-53
2022/09/03 01:27:45;;;;;;;;;;;435.90;2355.20;;;;;;5033837;28;19917;-58
2022/09/03 01:30:16;;;;;;;;;;;435.90;2355.20;;;;;;5033605;28;19948;-52
2022/09/03 01:33:01;;;;;;;;;;;435.90;2355.20;;;;;;5033437;28;19956;-53
2022/09/03 01:35:42;;;;;;;;;;;435.90;2355.20;;;;;;5033428;28;20344;-51
2022/09/03 01:38:30;;;;;;;;;;;435.90;2355.20;;;;;;5033207;28;20363;-54
2022/09/03 01:42:12;;;;;;;;;;;435.90;2355.20;;;;;;5033391;28;19924;-54
2022/09/03 01:43:54;;;;;;;;;;;436.00;2355.20;;;;;;5033318;28;19909;-53
2022/09/03 01:46:25;;;;;;;;;;;436.00;2355.20;;;;;;5032912;28;19955;-56
2022/09/03 01:49:10;;;;;;;;;;;436.00;2355.20;;;;;;5033230;28;19955;-52
2022/09/03 01:51:35;;;;;;;;;;;436.00;2355.20;;;;;;5033041;28;19913;-52
2022/09/03 01:54:19;;;;;;;;;;;436.00;2355.20;;;;;;5032898;28;19913;-53
2022/09/03 01:57:07;;;;;;;;;;;435.90;2355.20;;;;;;5031848;28;19920;-51
2022/09/03 01:59:33;;;;;;;;;;;435.90;2355.20;;;;;;5033121;28;19909;-55
2022/09/03 02:02:00;;;;;;;;;;;435.90;2355.20;;;;;;5032775;28;19920;-54
2022/09/03 02:04:27;;;;;;;;;;;435.90;2355.20;;;;;;5033028;28;20363;-55
2022/09/03 02:06:56;;;;;;;;;;;435.90;2355.20;;;;;;5032908;28;19913;-53
2022/09/03 02:09:22;;;;;;;;;;;435.90;2355.20;;;;;;5032883;28;19924;-53
2022/09/03 02:11:53;;;;;;;;;;;435.90;2355.20;;;;;;5032665;28;20318;-54
2022/09/03 02:14:19;;;;;;;;;;;435.90;2355.20;;;;;;5032752;28;19963;-55
2022/09/03 02:16:45;;;;;;;;;;;435.90;2355.20;;;;;;5032905;28;19909;-52
2022/09/03 02:19:13;;;;;;;;;;;435.90;2355.20;;;;;;5032620;28;20330;-53
2022/09/03 02:21:41;;;;;;;;;;;435.90;2355.20;;;;;;5032296;28;19913;-53
2022/09/03 02:24:07;;;;;;;;;;;435.90;2355.20;;;;;;5032480;28;19917;-53
2022/09/03 02:26:33;;;;;;;;;;;435.90;2355.20;;;;;;5032474;28;19932;-53
2022/09/03 02:29:00;;;;;;;;;;;435.90;2355.20;;;;;;5032388;28;20367;-53
2022/09/03 02:31:27;;;;;;;;;;;435.90;2355.20;;;;;;5032491;28;19909;-53
2022/09/03 02:33:54;;;;;;;;;;;435.90;2355.20;;;;;;5032495;28;19945;-54
2022/09/03 02:36:23;;;;;;;;;;;435.90;2355.20;;;;;;5032268;28;19987;-57
2022/09/03 02:38:49;;;;;;;;;;;435.90;2355.20;;;;;;5032115;28;19909;-57
2022/09/03 02:41:14;;;;;;;;;;;435.90;2355.20;;;;;;5032244;28;19916;-55
2022/09/03 02:43:49;;;;;;;;;;;436.00;2355.20;;;;;;5032031;28;19916;-57
2022/09/03 02:46:35;;;;;;;;;;;435.90;2355.20;;;;;;5032271;28;19916;-54
2022/09/03 02:49:00;;;;;;;;;;;435.90;2355.20;;;;;;5031133;28;20007;-53
2022/09/03 02:51:30;;;;;;;;;;;436.00;2355.20;;;;;;5032221;28;20410;-52
2022/09/03 02:53:56;;;;;;;;;;;435.90;2355.20;;;;;;5032162;28;19917;-52
2022/09/03 02:56:26;;;;;;;;;;;435.90;2355.20;;;;;;5031703;28;19917;-52
2022/09/03 02:58:52;;;;;;;;;;;435.90;2355.20;;;;;;5031896;28;20425;-52
2022/09/03 03:01:18;;;;;;;;;;;435.90;2355.20;;;;;;5031720;28;19909;-55
2022/09/03 03:03:43;;;;;;;;;;;435.90;2355.20;;;;;;5032079;28;19916;-53
2022/09/03 03:06:09;;;;;;;;;;;435.90;2355.20;;;;;;5031536;28;20256;-52
2022/09/03 03:08:34;;;;;;;;;;;435.90;2355.20;;;;;;5031722;28;19917;-53
2022/09/03 03:11:00;;;;;;;;;;;435.90;2355.20;;;;;;5031521;28;19960;-54
2022/09/03 03:13:27;;;;;;;;;;;435.90;2355.20;;;;;;5031665;28;19913;-56
2022/09/03 03:15:56;;;;;;;;;;;435.90;2355.20;;;;;;5031711;28;19916;-57
2022/09/03 03:18:22;;;;;;;;;;;435.90;2355.20;;;;;;5031925;28;19909;-56
2022/09/03 03:20:48;;;;;;;;;;;435.90;2355.20;;;;;;5031533;28;19936;-56
2022/09/03 03:23:13;;;;;;;;;;;435.90;2355.20;;;;;;5031585;28;20363;-55
2022/09/03 03:25:39;;;;;;;;;;;435.90;2355.20;;;;;;5031328;28;20401;-55
2022/09/03 03:28:05;;;;;;;;;;;435.90;2355.20;;;;;;5031463;28;19923;-56
2022/09/03 03:30:31;;;;;;;;;;;435.90;2355.20;;;;;;5031329;28;20428;-54
2022/09/03 03:32:57;;;;;;;;;;;435.90;2355.20;;;;;;5031169;28;19945;-54
2022/09/03 03:35:22;;;;;;;;;;;435.90;2355.20;;;;;;5031541;28;19916;-53
2022/09/03 03:37:48;;;;;;;;;;;435.90;2355.20;;;;;;5031349;28;20283;-54
2022/09/03 03:40:14;;;;;;;;;;;435.90;2355.20;;;;;;5031300;28;19909;-55
2022/09/03 03:42:40;;;;;;;;;;;435.90;2355.20;;;;;;5031199;28;20317;-54
2022/09/03 03:45:06;;;;;;;;;;;435.90;2355.20;;;;;;5031264;28;19979;-53
2022/09/03 03:47:32;;;;;;;;;;;435.90;2355.20;;;;;;5031026;28;20379;-53
2022/09/03 03:49:58;;;;;;;;;;;436.00;2355.20;;;;;;5031020;28;19917;-53
2022/09/03 03:52:24;;;;;;;;;;;435.90;2355.20;;;;;;5031028;28;19920;-57
2022/09/03 03:54:50;;;;;;;;;;;435.90;2355.20;;;;;;5031029;28;19913;-53
2022/09/03 03:57:16;;;;;;;;;;;435.90;2355.20;;;;;;5031145;28;19924;-53
2022/09/03 03:59:41;;;;;;;;;;;435.90;2355.20;;;;;;5030852;28;19909;-55
2022/09/03 04:02:07;;;;;;;;;;;435.90;2355.20;;;;;;5030786;28;19909;-53
2022/09/03 04:04:32;;;;;;;;;;;435.90;2355.20;;;;;;5031143;28;19916;-52
2022/09/03 04:06:58;;;;;;;;;;;435.90;2355.20;;;;;;5031124;28;20067;-54
2022/09/03 04:09:23;;;;;;;;;;;435.90;2355.20;;;;;;5031061;28;19909;-53
2022/09/03 04:11:49;;;;;;;;;;;435.90;2355.20;;;;;;5030856;28;19917;-53
2022/09/03 04:14:16;;;;;;;;;;;435.90;2355.20;;;;;;5030908;28;19956;-56
2022/09/03 04:16:45;;;;;;;;;;;435.90;2355.20;;;;;;5030868;28;19924;-54
2022/09/03 04:19:11;;;;;;;;;;;435.90;2355.20;;;;;;5032193;28;19967;-53
2022/09/03 04:21:37;;;;;;;;;;;435.90;2355.20;;;;;;5034861;28;20317;-56
2022/09/03 04:24:03;;;;;;;;;;;435.90;2355.20;;;;;;5034898;28;19917;-53
2022/09/03 04:26:32;;;;;;;;;;;435.90;2355.20;;;;;;5034707;28;19916;-55
2022/09/03 04:29:01;;;;;;;;;;;435.90;2355.20;;;;;;5034704;28;19913;-56
2022/09/03 04:31:27;;;;;;;;;;;435.90;2355.20;;;;;;5034514;28;20379;-54
2022/09/03 04:33:53;;;;;;;;;;;436.00;2355.20;;;;;;5034717;28;19909;-55
2022/09/03 04:36:20;;;;;;;;;;;436.00;2355.20;;;;;;5034490;28;19913;-54
2022/09/03 04:38:47;;;;;;;;;;;436.00;2355.20;;;;;;5034621;28;19920;-58
2022/09/03 04:41:14;;;;;;;;;;;436.10;2355.20;;;;;;5034661;28;19916;-56
2022/09/03 04:43:43;;;;;;;;;;;436.10;2355.20;;;;;;5016595;28;20270;-57
2022/09/03 04:46:09;;;;;;;;;;;436.10;2355.20;;;;;;5034370;28;19999;-52
2022/09/03 04:48:35;;;;;;;;;;;460.80;2380.80;;;;;;5034602;28;19921;-56
2022/09/03 04:51:05;;;;;;;;;;;460.80;2380.80;;;;;;5034141;28;19909;-56
2022/09/03 04:53:32;;;;;;;;;;;460.80;2380.80;;;;;;5034030;28;19917;-54
2022/09/03 04:55:57;;;;;;;;;;;460.80;2380.80;;;;;;5034122;28;19921;-56
2022/09/03 04:58:23;;;;;;;;;;;460.90;2380.80;;;;;;5034256;28;19996;-54
2022/09/03 05:00:49;;;;;;;;;;;461.00;2380.80;;;;;;5034054;28;20355;-53
2022/09/03 05:03:14;;;;;;;;;;;461.00;2380.80;;;;;;5034086;28;20306;-52
2022/09/03 05:05:40;;;;;;;;;;;461.00;2380.80;;;;;;5034123;28;19948;-56
2022/09/03 05:08:06;;;;;;;;;;;461.10;2380.80;;;;;;5034225;28;19975;-53
2022/09/03 05:10:31;;;;;;;;;;;461.10;2380.80;;;;;;5033915;28;19909;-55
2022/09/03 05:13:01;;;;;;;;;;;461.20;2380.80;;;;;;5034124;28;19909;-54
2022/09/03 05:15:27;;;;;;;;;;;461.30;2380.80;;;;;;5033867;28;20363;-53
2022/09/03 05:17:56;;;;;;;;;;;461.20;2380.80;;;;;;5033937;28;20007;-56
2022/09/03 05:20:22;;;;;;;;;;;461.20;2380.80;;;;;;5033943;28;19909;-53
2022/09/03 05:22:48;;;;;;;;;;;461.20;2380.80;;;;;;5033476;28;19929;-56
2022/09/03 05:25:13;;;;;;;;;;;461.30;2380.80;;;;;;5034013;28;20004;-54
2022/09/03 05:27:39;;;;;;;;;;;461.40;2380.80;;;;;;5033505;28;19924;-56
2022/09/03 05:30:05;;;;;;;;;;;461.40;2380.80;;;;;;5033433;28;19916;-52
2022/09/03 05:32:31;;;;;;;;;;;461.40;2380.80;;;;;;5033449;28;20382;-56
2022/09/03 05:34:57;;;;;;;;;;;461.50;2380.80;;;;;;5033814;28;20337;-54
2022/09/03 05:37:22;;;;;;;;;;;461.60;2380.80;;;;;;5033621;28;19913;-53
2022/09/03 05:39:48;;;;;;;;;;;461.70;2380.80;;;;;;5033427;28;20004;-56
2022/09/03 05:42:14;;;;;;;;;;;461.70;2380.80;;;;;;5033250;28;19909;-56
2022/09/03 05:44:39;;;;;;;;;;;461.70;2380.80;;;;;;5033256;28;19917;-56
2022/09/03 05:47:05;;;;;;;;;;;486.40;2380.80;;;;;;5033360;28;20348;-57
2022/09/03 05:49:30;;;;;;;;;;;486.40;2380.80;;;;;;5033388;28;19917;-58
2022/09/03 05:51:56;;;;;;;;;;;486.40;2380.80;;;;;;5033264;28;19917;-54
2022/09/03 05:54:22;;;;;;;;;;;486.50;2380.80;;;;;;5033175;28;19913;-56
2022/09/03 05:56:48;;;;;;;;;;;486.50;2380.80;;;;;;5032827;28;19909;-54
2022/09/03 05:59:14;;;;;;;;;;;486.50;2380.80;;;;;;5033072;28;19963;-56
2022/09/03 06:01:41;;;;;;;;;;;486.60;2380.80;;;;;;5032763;28;19913;-58
2022/09/03 06:04:10;;;;;;;;;;;486.60;2380.80;;;;;;5033150;28;19917;-57
2022/09/03 06:06:37;;;;;;;;;;;486.60;2380.80;;;;;;5032939;28;20375;-56
2022/09/03 06:09:04;;;;;;;;;;;486.50;2380.80;;;;;;5033155;28;19909;-57
2022/09/03 06:11:31;;;;;;;;;;;486.50;2380.80;;;;;;5032800;28;19916;-57
2022/09/03 06:14:00;;;;;;;;;;;486.60;2380.80;;;;;;5032937;28;19913;-55
2022/09/03 06:16:25;;;;;;;;;;;486.60;2380.80;;;;;;5032897;28;19917;-57
2022/09/03 06:18:52;;;;;;;;;;;486.70;2380.80;;;;;;5032479;28;20275;-56
2022/09/03 06:21:17;;;;;;;;;;;486.60;2380.80;;;;;;5032340;28;19984;-54
2022/09/03 06:23:47;;;;;;;;;;;486.80;2380.80;;;;;;5032588;28;19934;-57
2022/09/03 06:26:13;;;;;;;;;;;486.80;2380.80;;;;;;5032600;28;19916;-55
2022/09/03 06:28:42;;;;;;;;;;;486.90;2380.80;;;;;;5032474;28;19917;-56
2022/09/03 06:31:09;;;;;;;;;;;487.00;2380.80;;;;;;5032657;28;20296;-57
2022/09/03 06:33:36;;;;;;;;;;;487.00;2380.80;;;;;;5032570;28;19966;-56
2022/09/03 06:36:02;;;;;;;;;;;487.00;2380.80;;;;;;5032202;28;19916;-53
2022/09/03 06:38:30;;;;;;;;;;;487.10;2380.80;;;;;;5032124;28;20387;-54
2022/09/03 06:41:00;;;;;;;;;;;487.10;2380.80;;;;;;5032047;28;20017;-57
2022/09/03 06:43:27;;;;;;;;;;;487.10;2380.80;;;;;;5031937;28;19913;-56
2022/09/03 06:46:12;;;;;;;;;;;487.10;2380.80;;;;;;5032033;28;19925;-57
2022/09/03 06:48:39;;;;;;;;;;;487.00;2380.80;;;;;;5032165;28;20339;-54
2022/09/03 06:51:06;;;;;;;;;;;487.20;2380.80;;;;;;5032200;28;19920;-56
2022/09/03 06:53:33;;;;;;;;;;;512.00;2380.80;;;;;;5031871;28;19913;-57
2022/09/03 06:56:00;;;;;;;;;;;512.20;2380.80;;;;;;5031772;28;19916;-57
2022/09/03 06:58:30;;;;;;;;;;;512.10;2380.80;;;;;;5031817;28;19909;-54
2022/09/03 07:01:22;;;;;;;;;;;512.30;2380.80;;;;;;5031884;28;19915;-53
2022/09/03 07:03:51;;;;;;;;;;;512.40;2380.80;;;;;;5027762;28;20306;-54
2022/09/03 07:06:17;;;;;;;;;;;512.50;2380.80;;;;;;5032010;28;19913;-56
2022/09/03 07:08:43;;;;;;;;;;;512.60;2380.80;;;;;;5031755;28;19921;-54
2022/09/03 07:11:11;;;;;;;;;;;512.70;2380.80;;;;;;5031561;28;19924;-53
2022/09/03 07:13:44;;;;;;;;;;;512.50;2380.80;;;;;;5031845;28;19914;-53
2022/09/03 07:16:11;;;;;;;;;;;512.40;2380.80;;;;;;5031698;28;19915;-53
2022/09/03 07:18:37;;;;;;;;;;;512.60;2380.80;;;;;;5031686;28;19913;-54
2022/09/03 07:21:04;;;;;;;;;;;512.60;2380.80;;;;;;5031141;28;19978;-53
2022/09/03 07:23:30;;;;;;;;;;;512.60;2380.80;;;;;;5013224;28;20409;-57
2022/09/03 07:25:56;;;;;;;;;;;512.50;2380.80;;;;;;5031300;28;20007;-53
2022/09/03 07:28:23;;;;;;;;;;;512.40;2380.80;;;;;;5031182;28;19964;-53
2022/09/03 07:30:49;;;;;;;;;;;512.30;2380.80;;;;;;5031137;28;19948;-55
2022/09/03 07:33:15;;;;;;;;;;;512.20;2380.80;;;;;;5031191;28;20390;-52
2022/09/03 07:35:40;;;;;;;;;;;512.40;2380.80;;;;;;5031060;28;20004;-55
2022/09/03 07:38:06;;;;;;;;;;;512.50;2380.80;;;;;;5031303;28;19913;-53
2022/09/03 07:40:32;;;;;;;;;;;512.30;2380.80;;;;;;5031083;28;19924;-58
2022/09/03 07:43:03;;;;;;;;;;;512.70;2380.80;;;;;;5031236;28;20244;-57
2022/09/03 07:45:29;;;;;;;;;;;512.80;2380.80;;;;;;5031289;28;19909;-57
2022/09/03 07:47:54;;;;;;;;;;;512.80;2380.80;;;;;;5031154;28;19917;-54
2022/09/03 07:50:20;;;;;;;;;;;512.70;2380.80;;;;;;5031015;28;19916;-54
2022/09/03 07:52:47;;;;;;;;;;;512.60;2380.80;;;;;;5030950;28;20110;-51
2022/09/03 07:55:12;;;;;;;;;;;537.60;2406.40;;;;;;5030984;28;19913;-52
2022/09/03 07:57:38;;;;;;;;;;;538.00;2406.40;;;;;;5030833;28;19931;-52
2022/09/03 08:00:05;;;;;;;;;;;538.00;2406.40;;;;;;5030973;28;19909;-56
2022/09/03 08:02:32;;;;;;;;;;;538.20;2406.40;;;;;;5030866;28;19909;-56
2022/09/03 08:04:58;;;;;;;;;;;538.40;2406.40;;;;;;5030801;28;19975;-55
2022/09/03 08:07:23;;;;;;;;;;;563.20;2432.00;;;;;;5031082;28;19917;-56
2022/09/03 08:09:49;;;;;;;;;;;538.30;2406.40;;;;;;5030325;28;20294;-53
2022/09/03 08:12:15;;;;;;;;;;;538.40;2406.40;;;;;;5030689;28;19909;-56
2022/09/03 08:14:40;;;;;;;;;;;538.50;2406.40;;;;;;5030947;28;19909;-55
2022/09/03 08:17:06;;;;;;;;;;;538.50;2406.40;;;;;;5031009;28;20423;-53
2022/09/03 08:19:32;;;;;;;;;;;538.30;2406.40;;;;;;5031069;28;19909;-56
2022/09/03 08:21:59;;;;;;;;;;;538.00;2406.40;;;;;;5030501;28;19917;-54
2022/09/03 08:24:25;;;;;;;;;;;563.30;2432.00;;;;;;5031134;28;19948;-55
2022/09/03 08:26:50;;;;;;;;;;;563.80;2432.00;;;;;;5030611;28;19913;-52
2022/09/03 08:29:16;;;;;;;;;;;588.80;2432.00;;;;;;5030964;28;20390;-56
2022/09/03 08:31:43;;;;;;;;;;;589.00;2432.00;;;;;;5030594;28;19924;-57
2022/09/03 08:34:10;;;;;;;;;;;563.80;2432.00;;;;;;5013276;28;19916;-51
2022/09/03 08:36:37;;;;;;;;;;;589.00;2432.00;;;;;;5030746;28;20362;-51
2022/09/03 08:39:08;;;;;;;;;;;589.40;2432.00;;;;;;5030853;28;19975;-56
2022/09/03 08:41:36;;;;;;;;;;;589.60;2432.00;;;;;;5030655;28;19909;-56
2022/09/03 08:44:19;;;;;;;;;;;589.40;2432.00;;;;;;5030848;28;19909;-56
2022/09/03 08:47:03;;;;;;;;;;;589.60;2432.00;;;;;;5030570;28;19953;-57
2022/09/03 08:49:42;;;;;;;;;;;589.70;2432.00;;;;;;5030398;28;19920;-56
2022/09/03 08:52:17;;;;;;;;;;;614.40;2432.00;;;;;;5030224;28;20294;-57
2022/09/03 08:54:43;;;;;;;;;;;614.80;2432.00;;;;;;5030660;28;19913;-57
2022/09/03 08:57:09;;;;;;;;;;;614.80;2432.00;;;;;;5030411;28;20365;-55
2022/09/03 08:59:35;;;;;;;;;;;615.20;2432.00;;;;;;5030474;28;20004;-56
2022/09/03 09:02:09;;;;;;;;;;;640.30;2304.00;;;;;;5030207;28;19909;-59
2022/09/03 09:04:53;;;;;;;;;;;640.50;2252.80;;;;;;5030760;28;19910;-60
2022/09/03 09:07:29;;;;;;;;;;;640.40;2227.20;;;;;;5034041;28;20016;-60
2022/09/03 09:10:00;;;;;;;;;;;640.70;2278.40;;;;;;5034132;28;19909;-60
2022/09/03 09:12:29;;;;;;;;;;;665.60;2278.40;;;;;;5034021;28;20002;-60
2022/09/03 09:15:10;;;;;;;;;;;665.70;2227.20;;;;;;5034037;28;19915;-62
2022/09/03 09:17:36;;;;;;;;;;;665.90;2227.20;;;;;;5033990;28;19913;-55
2022/09/03 09:20:07;;;;;;;;;;;666.00;2150.40;;;;;;5033864;28;19978;-60
2022/09/03 09:22:45;;;;;;;;;;;666.30;2150.40;;;;;;5033548;28;19925;-59
2022/09/03 09:25:14;;;;;;;;;;;666.40;2073.60;;;;;;5033456;28;19913;-60
2022/09/03 09:27:48;;;;;;;;;;;691.30;2073.60;;;;;;5033330;28;19917;-65
2022/09/03 09:30:15;;;;;;;;;;;691.30;1996.80;;;;;;5033758;28;19952;-66
2022/09/03 09:32:41;;;;;;;;;;;665.90;2073.60;;;;;;5033449;28;19992;-68
2022/09/03 09:35:08;;;;;;;;;;;666.20;2048.00;;;;;;5033648;28;19959;-66
2022/09/03 09:37:34;;;;;;;;;;;691.30;2048.00;;;;;;5015626;28;20354;-62
2022/09/03 09:39:59;;;;;;;;;;;666.30;2073.60;;;;;;5033237;28;19940;-67
2022/09/03 09:42:26;;;;;;;;;;;665.70;2099.20;;;;;;5033334;28;20363;-67
2022/09/03 09:44:52;;;;;;;;;;;691.20;2048.00;;;;;;5033177;28;19909;-66
2022/09/03 09:47:28;;;;;;;;;;;691.40;2048.00;;;;;;5033122;28;19913;-60
2022/09/03 09:49:55;;;;;;;;;;;691.40;1971.20;;;;;;5033376;28;19913;-65
2022/09/03 09:52:24;;;;;;;;;;;665.80;2073.60;;;;;;5033011;28;19920;-63
2022/09/03 09:54:50;;;;;;;;;;;640.60;2073.60;;;;;;5032898;28;20020;-66
2022/09/03 09:57:23;;;;;;;;;;;640.90;2073.60;;;;;;5033118;28;19910;-66
2022/09/03 09:59:49;;;;;;;;;;;665.90;2073.60;;;;;;5033041;28;19963;-64
2022/09/03 10:02:22;;;;;;;;;;;666.40;2048.00;;;;;;5033107;28;19991;-64
2022/09/03 10:04:48;;;;;;;;;;;691.30;2022.40;;;;;;5032735;28;19912;-64
2022/09/03 10:07:25;;;;;;;;;;;666.40;2124.80;;;;;;5032993;28;19917;-65
2022/09/03 10:10:09;;;;;;;;;;;666.40;2048.00;;;;;;5032783;28;19916;-59
2022/09/03 10:12:40;;;;;;;;;;;691.20;2022.40;;;;;;5032961;28;20344;-60
2022/09/03 10:15:16;;;;;;;;;;;691.30;1996.80;;;;;;5032995;28;19956;-59
2022/09/03 10:17:45;;;;;;;;;;;666.00;2022.40;;;;;;5031640;28;19916;-64
2022/09/03 10:20:31;;;;;;;;;;;666.30;2048.00;;;;;;5032570;28;20355;-66
2022/09/03 10:23:02;;;;;;;;;;;666.30;2073.60;;;;;;5032553;28;19957;-57
2022/09/03 10:25:34;;;;;;;;;;;666.30;2073.60;;;;;;5032482;28;19909;-62
2022/09/03 10:28:00;;;;;;;;;;;691.30;2048.00;;;;;;5032449;28;19917;-59
2022/09/03 10:30:28;;;;;;;;;;;666.50;2022.40;;;;;;5032603;28;19958;-59
2022/09/03 10:32:57;;;;;;;;;;;666.50;2073.60;;;;;;5032830;28;19955;-60
2022/09/03 10:35:29;;;;;;;;;;;666.40;2048.00;;;;;;5032690;28;19932;-63
2022/09/03 10:38:14;;;;;;;;;;;691.20;2073.60;;;;;;5032388;28;20355;-65
2022/09/03 10:40:43;;;;;;;;;;;666.50;2048.00;;;;;;5032041;28;19916;-63
2022/09/03 10:43:11;;;;;;;;;;;666.20;2073.60;;;;;;5032047;28;19917;-58
2022/09/03 10:45:51;;;;;;;;;;;666.00;2048.00;;;;;;5032104;28;19913;-57
2022/09/03 10:48:36;;;;;;;;;;;665.90;2048.00;;;;;;5032260;28;19921;-58
2022/09/03 10:51:08;;;;;;;;;;;666.00;2176.00;;;;;;5031902;28;19920;-66
2022/09/03 10:53:51;;;;;;;;;;;666.00;2099.20;;;;;;5032020;28;20371;-63
2022/09/03 10:56:20;;;;;;;;;;;666.20;2150.40;;;;;;5032126;28;19958;-66
2022/09/03 10:58:49;;;;;;;;;;;666.50;2150.40;;;;;;5032160;28;19916;-64
2022/09/03 11:01:21;;;;;;;;;;;691.30;2048.00;;;;;;5032021;28;19909;-58
2022/09/03 11:04:04;;;;;;;;;;;691.40;2022.40;;;;;;5031771;28;19918;-59
2022/09/03 11:06:33;;;;;;;;;;;666.40;2048.00;;;;;;5031809;28;19916;-57
2022/09/03 11:09:04;;;;;;;;;;;691.30;2048.00;;;;;;5031639;28;19917;-62
2022/09/03 11:11:39;;;;;;;;;;;691.40;2022.40;;;;;;5031721;28;19962;-62
2022/09/03 11:14:10;;;;;;;;;;;691.30;1996.80;;;;;;5031790;28;19948;-63
2022/09/03 11:16:51;;;;;;;;;;;691.30;2048.00;;;;;;5031829;28;19910;-61
2022/09/03 11:19:17;;;;;;;;;;;691.30;2048.00;;;;;;5031575;28;19910;-62
2022/09/03 11:21:44;;;;;;;;;;;691.40;2099.20;;;;;;5031431;28;19917;-61
2022/09/03 11:24:16;;;;;;;;;;;691.70;2048.00;;;;;;5031421;28;19917;-66
2022/09/03 11:26:47;;;;;;;;;;;691.80;2048.00;;;;;;5031365;28;20332;-66
2022/09/03 11:29:18;;;;;;;;;;;691.80;1971.20;;;;;;5031262;28;19921;-66
2022/09/03 11:32:00;;;;;;;;;;;691.70;1971.20;;;;;;5031473;28;19956;-61
2022/09/03 11:34:27;;;;;;;;;;;666.20;2022.40;;;;;;5029107;28;19917;-57
2022/09/03 11:37:12;;;;;;;;;;;640.50;2099.20;;;;;;5011558;28;20371;-57
2022/09/03 11:39:38;;;;;;;;;;;640.40;2124.80;;;;;;5028893;28;19915;-61
2022/09/03 11:42:25;;;;;;;;;;;640.80;2124.80;;;;;;5029139;28;19913;-57
2022/09/03 11:44:51;;;;;;;;;;;666.20;2176.00;;;;;;5028816;28;20359;-62
2022/09/03 11:47:19;;;;;;;;;;;691.30;2073.60;;;;;;5028785;28;19925;-59
2022/09/03 11:49:49;;;;;;;;;;;691.30;2073.60;;;;;;5029381;28;19913;-66
2022/09/03 11:52:24;;;;;;;;;;;666.40;2073.60;;;;;;5029076;28;20042;-56
2022/09/03 11:54:50;;;;;;;;;;;666.20;2073.60;;;;;;5028784;28;19920;-60
2022/09/03 11:57:22;;;;;;;;;;;666.30;2099.20;;;;;;5029241;28;20517;-62
2022/09/03 11:59:47;;;;;;;;;;;666.20;2099.20;;;;;;5028342;28;19909;-58
2022/09/03 12:02:18;;;;;;;;;;;666.30;2073.60;;;;;;5029009;28;19916;-67
2022/09/03 12:05:02;;;;;;;;;;;665.90;2073.60;;;;;;5028967;28;20425;-54
2022/09/03 12:07:38;;;;;;;;;;;640.70;2124.80;;;;;;5028633;28;19917;-59
2022/09/03 12:10:07;;;;;;;;;;;665.60;2124.80;;;;;;5029181;28;19971;-60
2022/09/03 12:12:56;;;;;;;;;;;640.40;2099.20;;;;;;5028728;28;19919;-54
2022/09/03 12:15:34;;;;;;;;;;;640.60;2073.60;;;;;;5028676;28;19913;-59
2022/09/03 12:18:20;;;;;;;;;;;665.90;2073.60;;;;;;5028835;28;19913;-55
2022/09/03 12:20:47;;;;;;;;;;;666.20;2048.00;;;;;;5028724;28;19914;-65
2022/09/03 12:23:27;;;;;;;;;;;665.70;2124.80;;;;;;5028793;28;19929;-65
2022/09/03 12:25:53;;;;;;;;;;;640.90;2099.20;;;;;;5028455;28;20422;-63
2022/09/03 12:28:22;;;;;;;;;;;640.40;2150.40;;;;;;5028187;28;19917;-59
2022/09/03 12:30:52;;;;;;;;;;;640.10;2176.00;;;;;;5028601;28;19920;-57
2022/09/03 12:33:19;;;;;;;;;;;640.70;2099.20;;;;;;5028516;28;19928;-59
2022/09/03 12:35:57;;;;;;;;;;;640.90;2073.60;;;;;;5028703;28;19913;-56
2022/09/03 12:38:24;;;;;;;;;;;665.60;2073.60;;;;;;5028629;28;19916;-58
2022/09/03 12:40:50;;;;;;;;;;;666.00;2099.20;;;;;;5030219;28;19914;-57
2022/09/03 12:43:17;;;;;;;;;;;666.30;2124.80;;;;;;5032607;28;20318;-57
2022/09/03 12:45:46;;;;;;;;;;;666.50;2099.20;;;;;;5032671;28;19916;-58
2022/09/03 12:48:14;;;;;;;;;;;666.20;2048.00;;;;;;5031119;28;20015;-57
2022/09/03 12:50:40;;;;;;;;;;;665.70;2022.40;;;;;;5030879;28;19909;-59
2022/09/03 12:53:08;;;;;;;;;;;665.60;2048.00;;;;;;5030699;28;19924;-57
2022/09/03 12:55:34;;;;;;;;;;;640.10;2099.20;;;;;;5030852;28;19913;-56
2022/09/03 12:57:59;;;;;;;;;;;640.70;2124.80;;;;;;5031161;28;19919;-61
2022/09/03 13:00:27;;;;;;;;;;;665.90;2099.20;;;;;;5032054;28;20004;-58
2022/09/03 13:03:02;;;;;;;;;;;666.10;2022.40;;;;;;5032223;28;19909;-65
2022/09/03 13:05:34;;;;;;;;;;;640.60;2099.20;;;;;;5031592;28;20338;-57
2022/09/03 13:08:02;;;;;;;;;;;665.60;2073.60;;;;;;5031754;28;19956;-62
2022/09/03 13:10:30;;;;;;;;;;;666.00;2073.60;;;;;;5031833;28;20371;-55
2022/09/03 13:13:00;;;;;;;;;;;666.30;2048.00;;;;;;5031849;28;19963;-55
2022/09/03 13:15:26;;;;;;;;;;;666.10;2099.20;;;;;;5030356;28;19916;-59
2022/09/03 13:17:52;;;;;;;;;;;666.00;2124.80;;;;;;5031856;28;20320;-62
2022/09/03 13:20:17;;;;;;;;;;;665.90;2099.20;;;;;;5031483;28;19953;-60
2022/09/03 13:22:46;;;;;;;;;;;665.80;2099.20;;;;;;5031643;28;19971;-62
2022/09/03 13:25:21;;;;;;;;;;;665.90;2073.60;;;;;;5031709;28;19924;-64
2022/09/03 13:28:05;;;;;;;;;;;665.80;2124.80;;;;;;5031548;28;20145;-61
2022/09/03 13:30:35;;;;;;;;;;;640.90;2150.40;;;;;;5031553;28;20022;-59
2022/09/03 13:33:04;;;;;;;;;;;665.90;2099.20;;;;;;5031015;28;19967;-60
2022/09/03 13:35:38;;;;;;;;;;;640.90;2073.60;;;;;;5031324;28;19916;-59
2022/09/03 13:38:07;;;;;;;;;;;665.60;2099.20;;;;;;5031703;28;19909;-58
2022/09/03 13:40:48;;;;;;;;;;;665.60;2099.20;;;;;;5031300;28;20454;-59
2022/09/03 13:43:20;;;;;;;;;;;665.70;2176.00;;;;;;5031327;28;19921;-63
2022/09/03 13:45:57;;;;;;;;;;;666.00;2176.00;;;;;;5030993;28;19916;-63
2022/09/03 13:51:36;;;;;;;;;;;666.00;2099.20;;;;;;4950096;28;19978;-66
2022/09/03 13:54:08;;;;;;;;;;;666.20;2150.40;;;;;;4950542;29;19918;-65
2022/09/03 13:57:09;;;;;;;;;;;666.00;2124.80;;;;;;4950465;29;19950;-64
2022/09/03 13:59:43;;;;;;;;;;;665.90;2150.40;;;;;;4893459;29;19911;-61